createdAt,value
2023-05-24T00:02:17.320Z,17.84
2023-05-24T00:05:03.001Z,17.84
2023-05-24T00:07:49.311Z,17.75
2023-05-24T00:10:34.615Z,17.77
2023-05-24T00:13:20.502Z,17.76
2023-05-24T00:16:06.210Z,17.85
2023-05-24T00:18:52.346Z,17.86
2023-05-24T00:21:38.101Z,17.55
2023-05-24T00:24:24.106Z,17.83
2023-05-24T00:27:11.898Z,17.80
2023-05-24T00:29:58.255Z,17.74
2023-05-24T00:32:43.760Z,17.80
2023-05-24T00:35:29.818Z,17.76
2023-05-24T00:38:15.915Z,17.40
2023-05-24T00:41:02.098Z,17.71
2023-05-24T00:43:48.016Z,17.68
2023-05-24T00:46:34.116Z,17.59
2023-05-24T00:49:19.669Z,17.62
2023-05-24T00:52:06.554Z,17.60
2023-05-24T00:54:52.134Z,17.59
2023-05-24T00:57:38.285Z,17.27
2023-05-24T01:00:24.332Z,17.46
2023-05-24T01:03:10.392Z,17.50
2023-05-24T01:06:02.742Z,17.46
2023-05-24T01:09:19.985Z,17.25
2023-05-24T01:12:35.959Z,17.38
2023-05-24T01:15:48.985Z,17.34
2023-05-24T01:18:55.577Z,17.34
2023-05-24T01:21:56.332Z,17.31
2023-05-24T01:25:03.766Z,17.28
2023-05-24T01:27:50.583Z,16.94
2023-05-24T01:30:36.677Z,17.25
2023-05-24T01:33:22.460Z,17.24
2023-05-24T01:36:08.725Z,17.18
2023-05-24T01:38:54.524Z,17.09
2023-05-24T01:41:47.173Z,17.14
2023-05-24T01:44:37.595Z,17.05
2023-05-24T01:47:33.189Z,17.07
2023-05-24T01:50:32.499Z,16.96
2023-05-24T01:53:19.980Z,16.87
2023-05-24T01:56:06.785Z,16.89
2023-05-24T01:58:53.346Z,16.72
2023-05-24T02:01:39.898Z,16.96
2023-05-24T02:04:25.964Z,16.93
2023-05-24T02:07:12.176Z,16.76
2023-05-24T02:09:57.715Z,16.86
2023-05-24T02:12:43.612Z,16.95
2023-05-24T02:15:30.636Z,16.87
2023-05-24T02:18:18.738Z,16.51
2023-05-24T02:21:04.451Z,16.53
2023-05-24T02:23:50.375Z,16.71
2023-05-24T02:26:36.317Z,16.71
2023-05-24T02:29:23.189Z,16.58
2023-05-24T02:32:08.893Z,16.32
2023-05-24T02:34:54.686Z,16.53
2023-05-24T02:37:41.053Z,16.60
2023-05-24T02:40:26.963Z,16.55
2023-05-24T02:43:12.347Z,16.54
2023-05-24T02:45:58.243Z,16.54
2023-05-24T02:48:43.631Z,16.57
2023-05-24T02:51:29.794Z,16.37
2023-05-24T02:54:17.759Z,16.43
2023-05-24T02:57:04.133Z,16.25
2023-05-24T02:59:50.165Z,16.51
2023-05-24T03:02:38.635Z,16.59
2023-05-24T03:05:24.902Z,16.75
2023-05-24T03:08:10.945Z,16.68
2023-05-24T03:10:56.779Z,16.35
2023-05-24T03:13:42.583Z,16.58
2023-05-24T03:16:29.511Z,16.54
2023-05-24T03:19:17.394Z,16.59
2023-05-24T03:22:03.438Z,16.59
2023-05-24T03:24:50.100Z,16.51
2023-05-24T03:27:36.721Z,16.41
2023-05-24T03:30:23.150Z,16.48
2023-05-24T03:33:12.768Z,16.16
2023-05-24T03:35:59.114Z,16.37
2023-05-24T03:38:45.161Z,16.47
2023-05-24T03:41:31.354Z,16.11
2023-05-24T03:44:19.293Z,16.46
2023-05-24T03:47:05.590Z,16.55
2023-05-24T03:49:51.579Z,16.46
2023-05-24T03:52:37.383Z,16.26
2023-05-24T03:55:22.795Z,16.22
2023-05-24T03:58:10.784Z,16.55
2023-05-24T04:00:56.998Z,16.33
2023-05-24T04:03:46.053Z,16.15
2023-05-24T04:06:31.842Z,16.39
2023-05-24T04:09:18.339Z,16.24
2023-05-24T04:12:04.179Z,16.53
2023-05-24T04:14:50.066Z,16.51
2023-05-24T04:17:35.996Z,16.42
2023-05-24T04:20:27.220Z,16.25
2023-05-24T04:23:12.798Z,16.43
2023-05-24T04:25:58.901Z,16.47
2023-05-24T04:28:46.901Z,16.53
2023-05-24T04:31:34.369Z,16.47
2023-05-24T04:34:22.413Z,16.48
2023-05-24T04:37:09.562Z,16.44
2023-05-24T04:39:55.869Z,16.23
2023-05-24T04:42:42.772Z,16.07
2023-05-24T04:45:30.370Z,16.38
2023-05-24T04:48:16.705Z,16.40
2023-05-24T04:51:02.903Z,16.44
2023-05-24T04:53:49.233Z,16.35
2023-05-24T04:56:38.802Z,16.53
2023-05-24T04:59:25.060Z,16.09
2023-05-24T05:02:10.769Z,16.40
2023-05-24T05:04:56.818Z,16.39
2023-05-24T05:07:42.282Z,16.40
2023-05-24T05:10:28.608Z,16.44
2023-05-24T05:13:14.273Z,16.41
2023-05-24T05:16:00.086Z,16.29
2023-05-24T05:18:46.259Z,16.31
2023-05-24T05:21:36.493Z,15.96
2023-05-24T05:24:22.131Z,16.28
2023-05-24T05:27:09.314Z,16.27
2023-05-24T05:29:57.554Z,16.18
2023-05-24T05:32:43.970Z,16.04
2023-05-24T05:35:30.142Z,16.11
2023-05-24T05:38:16.360Z,16.22
2023-05-24T05:41:02.275Z,16.29
2023-05-24T05:43:48.380Z,15.93
2023-05-24T05:46:33.836Z,16.32
2023-05-24T05:49:20.419Z,16.34
2023-05-24T05:52:06.371Z,16.28
2023-05-24T05:54:52.264Z,16.12
2023-05-24T05:57:38.013Z,16.27
2023-05-24T06:00:24.024Z,16.17
2023-05-24T06:03:09.902Z,16.14
2023-05-24T06:05:55.949Z,16.22
2023-05-24T06:08:41.932Z,16.27
2023-05-24T06:11:28.111Z,16.35
2023-05-24T06:14:18.234Z,15.81
2023-05-24T06:17:05.047Z,16.31
2023-05-24T06:19:55.176Z,16.08
2023-05-24T06:22:42.758Z,16.37
2023-05-24T06:25:38.802Z,16.40
2023-05-24T06:28:24.591Z,16.36
2023-05-24T06:31:10.319Z,16.32
2023-05-24T06:34:03.293Z,16.37
2023-05-24T06:36:51.594Z,16.08
2023-05-24T06:39:37.920Z,16.02
2023-05-24T06:42:23.518Z,16.03
2023-05-24T06:45:11.204Z,16.11
2023-05-24T06:47:57.238Z,16.36
2023-05-24T06:50:44.065Z,16.29
2023-05-24T06:53:29.968Z,16.25
2023-05-24T06:56:16.688Z,16.09
2023-05-24T06:59:02.579Z,16.17
2023-05-24T07:01:51.701Z,16.36
2023-05-24T07:04:37.749Z,16.37
2023-05-24T07:07:23.933Z,16.25
2023-05-24T07:10:10.816Z,16.24
2023-05-24T07:12:57.013Z,16.22
2023-05-24T07:15:42.823Z,16.32
2023-05-24T07:18:30.157Z,16.34
2023-05-24T07:21:16.089Z,16.26
2023-05-24T07:24:04.018Z,16.04
2023-05-24T07:26:51.124Z,16.31
2023-05-24T07:29:38.252Z,16.32
2023-05-24T07:32:24.672Z,16.43
2023-05-24T07:35:13.081Z,16.40
2023-05-24T07:37:58.510Z,16.39
2023-05-24T07:40:44.679Z,16.34
2023-05-24T07:43:30.390Z,16.40
2023-05-24T07:46:16.439Z,16.39
2023-05-24T07:49:02.468Z,16.52
2023-05-24T07:51:48.996Z,16.36
2023-05-24T07:54:34.391Z,16.53
2023-05-24T07:57:20.345Z,16.46
2023-05-24T08:00:14.637Z,16.49
2023-05-24T08:03:01.093Z,16.59
2023-05-24T08:05:47.104Z,16.59
2023-05-24T08:08:33.736Z,16.75
2023-05-24T08:11:19.663Z,16.76
2023-05-24T08:14:06.029Z,16.80
2023-05-24T08:16:51.569Z,16.84
2023-05-24T08:19:37.929Z,16.46
2023-05-24T08:22:23.449Z,16.61
2023-05-24T08:25:10.822Z,16.55
2023-05-24T08:27:57.792Z,16.68
2023-05-24T08:30:43.934Z,16.72
2023-05-24T08:33:29.990Z,16.66
2023-05-24T08:36:17.662Z,16.50
2023-05-24T08:39:04.940Z,16.70
2023-05-24T08:42:07.347Z,16.73
2023-05-24T08:45:15.023Z,16.73
2023-05-24T08:48:01.618Z,16.50
2023-05-24T08:50:47.681Z,16.74
2023-05-24T08:53:33.773Z,16.71
2023-05-24T08:56:19.744Z,16.68
2023-05-24T08:59:06.561Z,16.57
2023-05-24T09:01:54.586Z,16.46
2023-05-24T09:04:41.764Z,16.13
2023-05-24T09:07:27.752Z,16.06
2023-05-24T09:10:13.896Z,16.51
2023-05-24T09:13:02.910Z,16.52
2023-05-24T09:15:48.994Z,16.64
2023-05-24T09:18:35.174Z,16.65
2023-05-24T09:21:22.345Z,16.59
2023-05-24T09:24:08.496Z,16.55
2023-05-24T09:26:54.560Z,16.60
2023-05-24T09:29:41.426Z,16.59
2023-05-24T09:32:28.767Z,16.61
2023-05-24T09:35:14.326Z,16.55
2023-05-24T09:38:00.584Z,16.79
2023-05-24T09:40:46.986Z,16.58
2023-05-24T09:43:34.799Z,16.91
2023-05-24T09:46:21.618Z,16.85
2023-05-24T09:49:08.685Z,16.91
2023-05-24T09:51:54.889Z,16.81
2023-05-24T09:54:41.842Z,17.00
2023-05-24T09:57:28.240Z,17.13
2023-05-24T10:00:16.602Z,16.96
2023-05-24T10:03:04.744Z,16.96
2023-05-24T10:05:53.354Z,16.75
2023-05-24T10:08:39.177Z,16.91
2023-05-24T10:11:25.193Z,17.00
2023-05-24T10:14:11.150Z,17.04
2023-05-24T10:16:56.994Z,16.86
2023-05-24T10:19:42.885Z,16.84
2023-05-24T10:22:29.222Z,17.14
2023-05-24T10:25:21.872Z,17.25
2023-05-24T10:28:11.377Z,17.39
2023-05-24T10:31:13.089Z,17.53
2023-05-24T10:34:07.031Z,17.55
2023-05-24T10:36:53.342Z,17.56
2023-05-24T10:39:39.517Z,17.72
2023-05-24T10:42:26.387Z,17.65
2023-05-24T10:45:27.537Z,17.70
2023-05-24T10:48:13.370Z,17.71
2023-05-24T10:51:01.359Z,17.63
2023-05-24T10:53:47.376Z,17.44
2023-05-24T10:56:40.577Z,17.67
2023-05-24T10:59:35.163Z,17.63
2023-05-24T11:02:21.113Z,17.46
2023-05-24T11:05:07.597Z,17.43
2023-05-24T11:07:59.512Z,17.43
2023-05-24T11:10:45.304Z,17.32
2023-05-24T11:13:32.803Z,17.05
2023-05-24T11:16:37.154Z,17.29
2023-05-24T11:19:37.009Z,17.08
2023-05-24T11:22:25.544Z,17.21
2023-05-24T11:25:12.900Z,17.03
2023-05-24T11:27:58.944Z,17.16
2023-05-24T11:30:47.238Z,17.21
2023-05-24T11:33:33.273Z,17.22
2023-05-24T11:36:20.093Z,16.90
2023-05-24T11:39:08.403Z,17.23
2023-05-24T11:41:54.657Z,17.22
2023-05-24T11:44:40.711Z,17.25
2023-05-24T11:47:27.104Z,17.22
2023-05-24T11:50:16.149Z,17.26
2023-05-24T11:53:03.833Z,17.10
2023-05-24T11:55:49.325Z,17.26
2023-05-24T11:58:45.859Z,17.28
2023-05-24T12:01:31.741Z,17.34
2023-05-24T12:04:17.649Z,17.05
2023-05-24T12:07:03.689Z,17.40
2023-05-24T12:09:50.670Z,17.31
2023-05-24T12:12:45.684Z,17.33
2023-05-24T12:15:32.407Z,17.49
2023-05-24T12:18:21.722Z,17.50
2023-05-24T12:21:11.337Z,17.57
2023-05-24T12:23:57.124Z,17.54
2023-05-24T12:26:47.638Z,17.45
2023-05-24T12:29:37.797Z,17.46
2023-05-24T12:32:24.033Z,17.41
2023-05-24T12:35:11.417Z,17.32
2023-05-24T12:38:01.018Z,17.15
2023-05-24T12:40:51.964Z,17.22
2023-05-24T12:43:51.349Z,17.31
2023-05-24T12:46:37.036Z,17.28
2023-05-24T12:49:24.460Z,17.30
2023-05-24T12:52:12.418Z,17.14
2023-05-24T12:54:58.765Z,17.34
2023-05-24T12:57:44.901Z,17.26
2023-05-24T13:00:31.329Z,17.32
2023-05-24T13:03:16.735Z,17.27
2023-05-24T13:06:03.016Z,17.22
2023-05-24T13:08:48.875Z,17.27
2023-05-24T13:11:35.281Z,17.26
2023-05-24T13:14:21.403Z,17.18
2023-05-24T13:17:07.878Z,17.18
2023-05-24T13:19:53.434Z,17.12
2023-05-24T13:22:39.905Z,17.12
2023-05-24T13:25:26.627Z,16.95
2023-05-24T13:28:12.370Z,17.03
2023-05-24T13:30:58.802Z,17.03
2023-05-24T13:33:45.109Z,17.02
2023-05-24T13:36:30.758Z,16.79
2023-05-24T13:39:16.953Z,16.87
2023-05-24T13:42:02.970Z,16.75
2023-05-24T13:44:49.083Z,16.70
2023-05-24T13:47:39.875Z,16.74
2023-05-24T13:50:27.173Z,16.95
2023-05-24T13:53:13.589Z,16.99
2023-05-24T13:56:00.880Z,16.99
2023-05-24T13:58:46.651Z,17.22
2023-05-24T14:01:33.610Z,17.29
2023-05-24T14:04:19.800Z,17.20
2023-05-24T14:07:08.103Z,17.21
2023-05-24T14:09:53.656Z,17.08
2023-05-24T14:12:39.588Z,17.28
2023-05-24T14:15:25.016Z,17.07
2023-05-24T14:18:11.006Z,17.33
2023-05-24T14:20:56.765Z,17.27
2023-05-24T14:23:43.038Z,17.30
2023-05-24T14:26:28.613Z,17.23
2023-05-24T14:29:14.693Z,17.17
2023-05-24T14:32:00.488Z,17.23
2023-05-24T14:34:46.934Z,17.24
2023-05-24T14:37:32.495Z,17.30
2023-05-24T14:40:19.963Z,17.32
2023-05-24T14:43:07.016Z,16.98
2023-05-24T14:45:52.911Z,17.25
2023-05-24T14:48:41.521Z,17.26
2023-05-24T14:51:27.672Z,17.21
2023-05-24T14:54:13.664Z,17.09
2023-05-24T14:57:00.130Z,17.09
2023-05-24T14:59:45.891Z,16.78
2023-05-24T15:02:31.766Z,16.94
2023-05-24T15:05:17.950Z,16.83
2023-05-24T15:08:05.059Z,16.84
2023-05-24T15:10:51.105Z,16.87
2023-05-24T15:13:38.463Z,16.50
2023-05-24T15:16:27.207Z,16.77
2023-05-24T15:19:13.456Z,16.79
2023-05-24T15:21:59.342Z,16.51
2023-05-24T15:24:45.488Z,16.71
2023-05-24T15:27:30.919Z,16.45
2023-05-24T15:30:19.260Z,16.76
2023-05-24T15:33:05.029Z,16.80
2023-05-24T15:35:51.276Z,16.80
2023-05-24T15:38:38.776Z,16.72
2023-05-24T15:41:25.190Z,16.67
2023-05-24T15:44:11.053Z,16.73
2023-05-24T15:46:57.059Z,16.70
2023-05-24T15:49:43.189Z,16.75
2023-05-24T15:52:29.004Z,16.80
2023-05-24T15:55:15.253Z,16.61
2023-05-24T15:58:01.986Z,16.61
2023-05-24T16:00:49.067Z,16.41
2023-05-24T16:03:44.815Z,16.63
2023-05-24T16:06:40.677Z,16.62
2023-05-24T16:09:30.219Z,16.61
2023-05-24T16:12:17.090Z,16.56
2023-05-24T16:15:04.350Z,16.50
2023-05-24T16:17:50.895Z,16.50
2023-05-24T16:20:37.134Z,16.43
2023-05-24T16:23:25.874Z,16.57
2023-05-24T16:26:12.781Z,16.50
2023-05-24T16:28:59.059Z,16.32
2023-05-24T16:31:46.334Z,16.39
2023-05-24T16:34:41.450Z,16.23
2023-05-24T16:37:38.942Z,15.98
2023-05-24T16:40:25.042Z,16.25
2023-05-24T16:43:11.575Z,16.13
2023-05-24T16:45:57.693Z,16.03
2023-05-24T16:48:44.593Z,16.00
2023-05-24T16:51:30.863Z,16.23
2023-05-24T16:54:17.638Z,16.27
2023-05-24T16:57:04.110Z,16.00
2023-05-24T16:59:51.196Z,16.26
2023-05-24T17:02:37.360Z,16.22
2023-05-24T17:05:25.952Z,16.28
2023-05-24T17:08:12.796Z,16.00
2023-05-24T17:10:59.369Z,16.17
2023-05-24T17:13:54.000Z,16.07
2023-05-24T17:46:25.159Z,16.30
2023-05-24T17:49:14.191Z,16.09
2023-05-24T17:52:03.416Z,16.29
2023-05-24T17:59:37.521Z,16.18
2023-05-24T18:14:19.687Z,16.10
2023-05-24T18:17:09.497Z,16.11
2023-05-24T18:24:18.196Z,16.07
2023-05-24T18:43:17.746Z,15.92
2023-05-24T18:46:05.971Z,16.02
2023-05-24T18:54:01.149Z,15.95
2023-05-24T18:56:47.863Z,15.83
2023-05-24T18:59:34.658Z,15.96
2023-05-24T19:02:21.130Z,15.80
2023-05-24T19:05:11.201Z,15.92
2023-05-24T19:07:57.677Z,16.08
2023-05-24T19:10:49.785Z,16.01
2023-05-24T19:13:36.171Z,15.97
2023-05-24T19:16:22.891Z,15.84
2023-05-24T19:19:11.368Z,15.93
2023-05-24T19:27:17.705Z,15.91
2023-05-24T19:30:05.672Z,15.92
2023-05-24T19:32:56.076Z,15.85
2023-05-24T19:41:11.611Z,15.94
2023-05-24T19:44:01.208Z,15.65
2023-05-24T21:28:37.772Z,15.71
2023-05-24T21:31:24.787Z,15.67
2023-05-24T21:45:14.611Z,15.69
2023-05-24T21:48:01.606Z,15.39
2023-05-24T22:01:42.512Z,15.66
2023-05-24T22:04:29.436Z,15.68
2023-05-24T22:18:11.441Z,15.56
2023-05-24T22:21:02.317Z,15.60
2023-05-24T22:23:50.271Z,15.63
2023-05-24T22:26:37.181Z,15.52
2023-05-24T22:40:23.531Z,15.47
2023-05-24T22:43:10.008Z,15.62
2023-05-24T22:45:56.920Z,15.59
2023-05-24T22:48:43.677Z,15.64
2023-05-24T22:51:30.386Z,15.56
2023-05-24T22:54:17.377Z,15.70
2023-05-24T23:23:54.093Z,15.74
2023-05-24T23:26:42.236Z,15.65
2023-05-24T23:29:28.527Z,15.75
2023-05-24T23:32:15.278Z,15.65
